sensor_id;sensor_type;location;lat;lon;timestamp;P1;durP1;ratioP1;P2;durP2;ratioP2
24273;SDS011;12392;42.678;23.380;2023-07-24T00:02:03;15.38;;;10.77;;
24273;SDS011;12392;42.678;23.380;2023-07-24T00:04:32;14.38;;;9.73;;
24273;SDS011;12392;42.678;23.380;2023-07-24T00:06:58;15.35;;;9.95;;
24273;SDS011;12392;42.678;23.380;2023-07-24T00:09:24;19.80;;;10.25;;
24273;SDS011;12392;42.678;23.380;2023-07-24T00:11:50;12.98;;;10.02;;
24273;SDS011;12392;42.678;23.380;2023-07-24T00:14:16;13.25;;;9.65;;
24273;SDS011;12392;42.678;23.380;2023-07-24T00:16:41;18.55;;;10.25;;
24273;SDS011;12392;42.678;23.380;2023-07-24T00:19:07;17.50;;;10.68;;
24273;SDS011;12392;42.678;23.380;2023-07-24T00:21:33;16.20;;;10.05;;
24273;SDS011;12392;42.678;23.380;2023-07-24T00:23:58;14.40;;;10.07;;
24273;SDS011;12392;42.678;23.380;2023-07-24T00:26:24;11.93;;;9.15;;
24273;SDS011;12392;42.678;23.380;2023-07-24T00:28:50;16.50;;;9.02;;
24273;SDS011;12392;42.678;23.380;2023-07-24T00:31:16;12.98;;;9.98;;
24273;SDS011;12392;42.678;23.380;2023-07-24T00:33:41;17.48;;;8.85;;
24273;SDS011;12392;42.678;23.380;2023-07-24T00:36:07;13.98;;;8.65;;
24273;SDS011;12392;42.678;23.380;2023-07-24T00:38:32;13.05;;;9.35;;
24273;SDS011;12392;42.678;23.380;2023-07-24T00:40:58;12.68;;;9.10;;
24273;SDS011;12392;42.678;23.380;2023-07-24T00:43:24;12.45;;;9.27;;
24273;SDS011;12392;42.678;23.380;2023-07-24T00:45:49;13.27;;;9.02;;
24273;SDS011;12392;42.678;23.380;2023-07-24T00:48:15;12.57;;;8.38;;
24273;SDS011;12392;42.678;23.380;2023-07-24T00:50:41;15.38;;;8.80;;
24273;SDS011;12392;42.678;23.380;2023-07-24T00:53:08;13.70;;;8.93;;
24273;SDS011;12392;42.678;23.380;2023-07-24T00:55:34;13.80;;;9.43;;
24273;SDS011;12392;42.678;23.380;2023-07-24T00:57:59;12.02;;;8.82;;
24273;SDS011;12392;42.678;23.380;2023-07-24T01:00:25;11.00;;;8.35;;
24273;SDS011;12392;42.678;23.380;2023-07-24T01:02:51;15.00;;;8.85;;
24273;SDS011;12392;42.678;23.380;2023-07-24T01:05:17;11.88;;;9.00;;
24273;SDS011;12392;42.678;23.380;2023-07-24T01:07:43;15.00;;;9.13;;
24273;SDS011;12392;42.678;23.380;2023-07-24T01:10:08;9.57;;;7.68;;
24273;SDS011;12392;42.678;23.380;2023-07-24T01:15:15;13.43;;;8.75;;
24273;SDS011;12392;42.678;23.380;2023-07-24T01:17:46;12.23;;;8.13;;
24273;SDS011;12392;42.678;23.380;2023-07-24T01:20:15;13.20;;;9.23;;
24273;SDS011;12392;42.678;23.380;2023-07-24T01:22:47;14.25;;;9.00;;
24273;SDS011;12392;42.678;23.380;2023-07-24T01:25:34;14.70;;;8.77;;
24273;SDS011;12392;42.678;23.380;2023-07-24T01:28:01;14.52;;;8.68;;
24273;SDS011;12392;42.678;23.380;2023-07-24T01:30:34;14.82;;;8.60;;
24273;SDS011;12392;42.678;23.380;2023-07-24T01:33:00;15.88;;;9.13;;
24273;SDS011;12392;42.678;23.380;2023-07-24T01:35:26;16.35;;;9.55;;
24273;SDS011;12392;42.678;23.380;2023-07-24T01:37:52;15.32;;;10.00;;
24273;SDS011;12392;42.678;23.380;2023-07-24T01:40:20;15.57;;;8.25;;
24273;SDS011;12392;42.678;23.380;2023-07-24T01:42:46;14.27;;;9.63;;
24273;SDS011;12392;42.678;23.380;2023-07-24T01:45:13;12.48;;;8.57;;
24273;SDS011;12392;42.678;23.380;2023-07-24T01:47:39;14.90;;;8.75;;
24273;SDS011;12392;42.678;23.380;2023-07-24T01:50:05;14.05;;;9.40;;
24273;SDS011;12392;42.678;23.380;2023-07-24T01:52:31;11.65;;;8.82;;
24273;SDS011;12392;42.678;23.380;2023-07-24T01:54:56;12.27;;;9.52;;
24273;SDS011;12392;42.678;23.380;2023-07-24T01:57:22;11.88;;;9.05;;
24273;SDS011;12392;42.678;23.380;2023-07-24T01:59:48;18.50;;;9.68;;
24273;SDS011;12392;42.678;23.380;2023-07-24T02:02:14;11.93;;;9.40;;
24273;SDS011;12392;42.678;23.380;2023-07-24T02:04:39;16.15;;;9.70;;
24273;SDS011;12392;42.678;23.380;2023-07-24T02:07:05;12.93;;;8.80;;
24273;SDS011;12392;42.678;23.380;2023-07-24T02:09:31;22.08;;;9.23;;
24273;SDS011;12392;42.678;23.380;2023-07-24T02:11:56;11.20;;;8.73;;
24273;SDS011;12392;42.678;23.380;2023-07-24T02:14:22;15.98;;;9.25;;
24273;SDS011;12392;42.678;23.380;2023-07-24T02:16:49;12.30;;;8.60;;
24273;SDS011;12392;42.678;23.380;2023-07-24T02:19:14;16.90;;;8.85;;
24273;SDS011;12392;42.678;23.380;2023-07-24T02:21:40;14.88;;;9.40;;
24273;SDS011;12392;42.678;23.380;2023-07-24T02:24:06;13.50;;;9.73;;
24273;SDS011;12392;42.678;23.380;2023-07-24T02:26:31;17.63;;;10.63;;
24273;SDS011;12392;42.678;23.380;2023-07-24T02:28:57;16.42;;;9.88;;
24273;SDS011;12392;42.678;23.380;2023-07-24T02:31:23;15.38;;;10.52;;
24273;SDS011;12392;42.678;23.380;2023-07-24T02:33:48;14.25;;;10.30;;
24273;SDS011;12392;42.678;23.380;2023-07-24T02:36:14;14.63;;;10.30;;
24273;SDS011;12392;42.678;23.380;2023-07-24T02:38:40;11.98;;;9.32;;
24273;SDS011;12392;42.678;23.380;2023-07-24T02:41:06;15.27;;;9.18;;
24273;SDS011;12392;42.678;23.380;2023-07-24T02:43:31;13.32;;;9.55;;
24273;SDS011;12392;42.678;23.380;2023-07-24T02:46:00;12.52;;;8.98;;
24273;SDS011;12392;42.678;23.380;2023-07-24T02:48:27;11.80;;;9.07;;
24273;SDS011;12392;42.678;23.380;2023-07-24T02:50:53;15.55;;;8.60;;
24273;SDS011;12392;42.678;23.380;2023-07-24T02:53:19;11.43;;;9.15;;
24273;SDS011;12392;42.678;23.380;2023-07-24T02:55:45;14.13;;;9.65;;
24273;SDS011;12392;42.678;23.380;2023-07-24T02:58:11;13.85;;;10.40;;
24273;SDS011;12392;42.678;23.380;2023-07-24T03:00:37;14.20;;;10.00;;
24273;SDS011;12392;42.678;23.380;2023-07-24T03:03:03;17.85;;;11.02;;
24273;SDS011;12392;42.678;23.380;2023-07-24T03:05:29;13.15;;;10.25;;
24273;SDS011;12392;42.678;23.380;2023-07-24T03:07:55;13.65;;;10.30;;
24273;SDS011;12392;42.678;23.380;2023-07-24T03:10:22;16.10;;;11.10;;
24273;SDS011;12392;42.678;23.380;2023-07-24T03:12:48;15.07;;;10.35;;
24273;SDS011;12392;42.678;23.380;2023-07-24T03:15:13;16.33;;;10.25;;
24273;SDS011;12392;42.678;23.380;2023-07-24T03:17:39;17.63;;;10.55;;
24273;SDS011;12392;42.678;23.380;2023-07-24T03:20:13;20.08;;;11.57;;
24273;SDS011;12392;42.678;23.380;2023-07-24T03:22:41;17.27;;;11.85;;
24273;SDS011;12392;42.678;23.380;2023-07-24T03:25:07;17.23;;;12.23;;
24273;SDS011;12392;42.678;23.380;2023-07-24T03:27:33;22.42;;;12.48;;
24273;SDS011;12392;42.678;23.380;2023-07-24T03:29:58;20.13;;;12.35;;
24273;SDS011;12392;42.678;23.380;2023-07-24T03:32:24;19.85;;;12.40;;
24273;SDS011;12392;42.678;23.380;2023-07-24T03:34:50;18.40;;;13.48;;
24273;SDS011;12392;42.678;23.380;2023-07-24T03:37:15;23.85;;;16.60;;
24273;SDS011;12392;42.678;23.380;2023-07-24T03:39:41;20.95;;;13.93;;
24273;SDS011;12392;42.678;23.380;2023-07-24T03:42:09;20.42;;;12.98;;
24273;SDS011;12392;42.678;23.380;2023-07-24T03:44:35;21.60;;;13.13;;
24273;SDS011;12392;42.678;23.380;2023-07-24T03:47:01;17.92;;;13.20;;
24273;SDS011;12392;42.678;23.380;2023-07-24T03:49:26;18.70;;;12.82;;
24273;SDS011;12392;42.678;23.380;2023-07-24T03:51:52;17.73;;;12.07;;
24273;SDS011;12392;42.678;23.380;2023-07-24T03:54:17;18.80;;;12.05;;
24273;SDS011;12392;42.678;23.380;2023-07-24T03:56:43;15.32;;;10.57;;
24273;SDS011;12392;42.678;23.380;2023-07-24T03:59:09;16.83;;;10.60;;
24273;SDS011;12392;42.678;23.380;2023-07-24T04:01:34;16.58;;;11.18;;
24273;SDS011;12392;42.678;23.380;2023-07-24T04:04:00;19.85;;;10.07;;
24273;SDS011;12392;42.678;23.380;2023-07-24T04:06:26;16.63;;;9.88;;
24273;SDS011;12392;42.678;23.380;2023-07-24T04:08:52;16.15;;;10.70;;
24273;SDS011;12392;42.678;23.380;2023-07-24T04:11:17;18.90;;;11.15;;
24273;SDS011;12392;42.678;23.380;2023-07-24T04:13:43;18.65;;;10.50;;
24273;SDS011;12392;42.678;23.380;2023-07-24T04:16:08;13.77;;;9.57;;
24273;SDS011;12392;42.678;23.380;2023-07-24T04:18:34;18.35;;;10.07;;
24273;SDS011;12392;42.678;23.380;2023-07-24T04:21:00;16.02;;;10.45;;
24273;SDS011;12392;42.678;23.380;2023-07-24T04:23:25;17.33;;;10.52;;
24273;SDS011;12392;42.678;23.380;2023-07-24T04:25:51;18.52;;;10.38;;
24273;SDS011;12392;42.678;23.380;2023-07-24T04:28:17;17.42;;;9.77;;
24273;SDS011;12392;42.678;23.380;2023-07-24T04:30:42;22.50;;;11.43;;
24273;SDS011;12392;42.678;23.380;2023-07-24T04:33:08;18.60;;;10.30;;
24273;SDS011;12392;42.678;23.380;2023-07-24T04:35:33;16.35;;;10.93;;
24273;SDS011;12392;42.678;23.380;2023-07-24T04:37:59;21.83;;;10.40;;
24273;SDS011;12392;42.678;23.380;2023-07-24T04:40:25;19.70;;;10.52;;
24273;SDS011;12392;42.678;23.380;2023-07-24T04:42:51;15.55;;;10.10;;
24273;SDS011;12392;42.678;23.380;2023-07-24T04:45:16;19.73;;;11.98;;
24273;SDS011;12392;42.678;23.380;2023-07-24T04:47:42;17.38;;;11.38;;
24273;SDS011;12392;42.678;23.380;2023-07-24T04:50:08;20.48;;;13.10;;
24273;SDS011;12392;42.678;23.380;2023-07-24T04:52:34;19.17;;;12.85;;
24273;SDS011;12392;42.678;23.380;2023-07-24T04:55:00;22.45;;;14.73;;
24273;SDS011;12392;42.678;23.380;2023-07-24T04:57:25;26.58;;;15.35;;
24273;SDS011;12392;42.678;23.380;2023-07-24T04:59:51;30.45;;;15.15;;
24273;SDS011;12392;42.678;23.380;2023-07-24T05:02:16;23.50;;;13.95;;
24273;SDS011;12392;42.678;23.380;2023-07-24T05:04:42;19.27;;;14.20;;
24273;SDS011;12392;42.678;23.380;2023-07-24T05:07:08;23.67;;;13.70;;
24273;SDS011;12392;42.678;23.380;2023-07-24T05:09:33;29.60;;;13.43;;
24273;SDS011;12392;42.678;23.380;2023-07-24T05:11:59;23.38;;;14.65;;
24273;SDS011;12392;42.678;23.380;2023-07-24T05:14:25;25.73;;;13.30;;
24273;SDS011;12392;42.678;23.380;2023-07-24T05:16:50;24.20;;;13.35;;
24273;SDS011;12392;42.678;23.380;2023-07-24T05:19:16;21.15;;;12.95;;
24273;SDS011;12392;42.678;23.380;2023-07-24T05:21:42;19.15;;;12.02;;
24273;SDS011;12392;42.678;23.380;2023-07-24T05:24:07;14.15;;;10.50;;
24273;SDS011;12392;42.678;23.380;2023-07-24T05:26:33;18.35;;;10.63;;
24273;SDS011;12392;42.678;23.380;2023-07-24T05:28:59;18.63;;;10.60;;
24273;SDS011;12392;42.678;23.380;2023-07-24T05:31:24;15.80;;;10.15;;
24273;SDS011;12392;42.678;23.380;2023-07-24T05:33:50;19.67;;;9.57;;
24273;SDS011;12392;42.678;23.380;2023-07-24T05:36:16;15.70;;;9.23;;
24273;SDS011;12392;42.678;23.380;2023-07-24T05:38:41;19.90;;;10.27;;
24273;SDS011;12392;42.678;23.380;2023-07-24T05:41:07;20.42;;;9.63;;
24273;SDS011;12392;42.678;23.380;2023-07-24T05:43:33;34.58;;;10.20;;
24273;SDS011;12392;42.678;23.380;2023-07-24T05:45:58;32.22;;;10.18;;
24273;SDS011;12392;42.678;23.380;2023-07-24T05:48:24;22.85;;;10.23;;
24273;SDS011;12392;42.678;23.380;2023-07-24T05:50:50;20.77;;;10.43;;
24273;SDS011;12392;42.678;23.380;2023-07-24T05:53:16;27.38;;;10.10;;
24273;SDS011;12392;42.678;23.380;2023-07-24T05:55:42;23.88;;;9.50;;
24273;SDS011;12392;42.678;23.380;2023-07-24T05:58:08;22.30;;;8.98;;
24273;SDS011;12392;42.678;23.380;2023-07-24T06:00:34;20.58;;;9.32;;
24273;SDS011;12392;42.678;23.380;2023-07-24T06:03:01;19.42;;;9.50;;
24273;SDS011;12392;42.678;23.380;2023-07-24T06:05:27;16.10;;;8.18;;
24273;SDS011;12392;42.678;23.380;2023-07-24T06:07:53;11.07;;;7.25;;
24273;SDS011;12392;42.678;23.380;2023-07-24T06:10:19;11.68;;;8.30;;
24273;SDS011;12392;42.678;23.380;2023-07-24T06:12:44;12.25;;;8.20;;
24273;SDS011;12392;42.678;23.380;2023-07-24T06:15:10;12.40;;;9.00;;
24273;SDS011;12392;42.678;23.380;2023-07-24T06:17:36;13.75;;;8.75;;
24273;SDS011;12392;42.678;23.380;2023-07-24T06:20:01;13.50;;;8.45;;
24273;SDS011;12392;42.678;23.380;2023-07-24T06:22:27;25.70;;;9.15;;
24273;SDS011;12392;42.678;23.380;2023-07-24T06:24:53;29.27;;;9.80;;
24273;SDS011;12392;42.678;23.380;2023-07-24T06:27:18;12.75;;;8.95;;
24273;SDS011;12392;42.678;23.380;2023-07-24T06:29:44;11.43;;;9.02;;
24273;SDS011;12392;42.678;23.380;2023-07-24T06:32:09;12.45;;;8.85;;
24273;SDS011;12392;42.678;23.380;2023-07-24T06:34:35;18.42;;;9.38;;
24273;SDS011;12392;42.678;23.380;2023-07-24T06:37:01;19.33;;;10.00;;
24273;SDS011;12392;42.678;23.380;2023-07-24T06:39:26;13.93;;;10.07;;
24273;SDS011;12392;42.678;23.380;2023-07-24T06:41:53;11.05;;;8.65;;
24273;SDS011;12392;42.678;23.380;2023-07-24T06:44:19;11.57;;;9.35;;
24273;SDS011;12392;42.678;23.380;2023-07-24T06:46:45;14.18;;;9.85;;
24273;SDS011;12392;42.678;23.380;2023-07-24T06:49:11;14.45;;;9.55;;
24273;SDS011;12392;42.678;23.380;2023-07-24T06:51:36;13.75;;;9.73;;
24273;SDS011;12392;42.678;23.380;2023-07-24T06:54:03;14.25;;;9.77;;
24273;SDS011;12392;42.678;23.380;2023-07-24T06:56:29;14.43;;;9.73;;
24273;SDS011;12392;42.678;23.380;2023-07-24T06:58:55;17.90;;;9.35;;
24273;SDS011;12392;42.678;23.380;2023-07-24T07:01:21;22.13;;;9.70;;
24273;SDS011;12392;42.678;23.380;2023-07-24T07:03:46;10.73;;;8.73;;
24273;SDS011;12392;42.678;23.380;2023-07-24T07:06:12;14.70;;;9.25;;
24273;SDS011;12392;42.678;23.380;2023-07-24T07:08:38;15.93;;;8.68;;
24273;SDS011;12392;42.678;23.380;2023-07-24T07:11:03;12.70;;;8.50;;
24273;SDS011;12392;42.678;23.380;2023-07-24T07:13:29;15.90;;;9.40;;
24273;SDS011;12392;42.678;23.380;2023-07-24T07:15:55;17.38;;;9.93;;
24273;SDS011;12392;42.678;23.380;2023-07-24T07:18:20;20.10;;;9.48;;
24273;SDS011;12392;42.678;23.380;2023-07-24T07:20:46;13.55;;;9.00;;
24273;SDS011;12392;42.678;23.380;2023-07-24T07:23:16;14.05;;;9.23;;
24273;SDS011;12392;42.678;23.380;2023-07-24T07:25:42;14.82;;;9.38;;
24273;SDS011;12392;42.678;23.380;2023-07-24T07:28:10;18.55;;;10.13;;
24273;SDS011;12392;42.678;23.380;2023-07-24T07:30:36;14.38;;;10.10;;
24273;SDS011;12392;42.678;23.380;2023-07-24T07:33:02;13.98;;;9.60;;
24273;SDS011;12392;42.678;23.380;2023-07-24T07:35:27;15.73;;;10.00;;
24273;SDS011;12392;42.678;23.380;2023-07-24T07:37:53;15.85;;;9.68;;
24273;SDS011;12392;42.678;23.380;2023-07-24T07:40:19;14.38;;;10.02;;
24273;SDS011;12392;42.678;23.380;2023-07-24T07:42:44;14.82;;;9.60;;
24273;SDS011;12392;42.678;23.380;2023-07-24T07:45:10;16.30;;;9.90;;
24273;SDS011;12392;42.678;23.380;2023-07-24T07:47:36;16.15;;;10.20;;
24273;SDS011;12392;42.678;23.380;2023-07-24T07:50:02;21.85;;;11.63;;
24273;SDS011;12392;42.678;23.380;2023-07-24T07:52:28;17.55;;;10.98;;
24273;SDS011;12392;42.678;23.380;2023-07-24T07:54:54;18.20;;;10.68;;
24273;SDS011;12392;42.678;23.380;2023-07-24T07:57:19;20.33;;;10.35;;
24273;SDS011;12392;42.678;23.380;2023-07-24T07:59:45;23.88;;;9.95;;
24273;SDS011;12392;42.678;23.380;2023-07-24T08:02:11;20.25;;;10.80;;
24273;SDS011;12392;42.678;23.380;2023-07-24T08:04:36;18.08;;;10.70;;
24273;SDS011;12392;42.678;23.380;2023-07-24T08:07:02;23.35;;;11.25;;
24273;SDS011;12392;42.678;23.380;2023-07-24T08:09:28;21.23;;;11.10;;
24273;SDS011;12392;42.678;23.380;2023-07-24T08:11:54;33.30;;;11.18;;
24273;SDS011;12392;42.678;23.380;2023-07-24T08:14:19;25.65;;;10.95;;
24273;SDS011;12392;42.678;23.380;2023-07-24T08:16:47;28.48;;;11.90;;
24273;SDS011;12392;42.678;23.380;2023-07-24T08:19:14;27.40;;;11.32;;
24273;SDS011;12392;42.678;23.380;2023-07-24T08:21:39;19.00;;;10.57;;
24273;SDS011;12392;42.678;23.380;2023-07-24T08:24:05;20.20;;;11.45;;
24273;SDS011;12392;42.678;23.380;2023-07-24T08:26:31;19.27;;;11.90;;
24273;SDS011;12392;42.678;23.380;2023-07-24T08:28:57;20.83;;;11.40;;
24273;SDS011;12392;42.678;23.380;2023-07-24T08:31:23;21.67;;;11.45;;
24273;SDS011;12392;42.678;23.380;2023-07-24T08:33:48;32.10;;;12.32;;
24273;SDS011;12392;42.678;23.380;2023-07-24T08:36:14;17.95;;;11.10;;
24273;SDS011;12392;42.678;23.380;2023-07-24T08:38:40;21.75;;;11.13;;
24273;SDS011;12392;42.678;23.380;2023-07-24T08:41:11;25.15;;;12.02;;
24273;SDS011;12392;42.678;23.380;2023-07-24T08:43:38;27.80;;;12.55;;
24273;SDS011;12392;42.678;23.380;2023-07-24T08:46:05;24.23;;;12.52;;
24273;SDS011;12392;42.678;23.380;2023-07-24T08:48:32;15.25;;;11.23;;
24273;SDS011;12392;42.678;23.380;2023-07-24T08:51:07;24.88;;;12.60;;
24273;SDS011;12392;42.678;23.380;2023-07-24T08:53:34;18.73;;;11.73;;
24273;SDS011;12392;42.678;23.380;2023-07-24T08:56:05;21.08;;;11.52;;
24273;SDS011;12392;42.678;23.380;2023-07-24T08:58:32;21.92;;;11.65;;
24273;SDS011;12392;42.678;23.380;2023-07-24T09:00:58;22.27;;;11.20;;
24273;SDS011;12392;42.678;23.380;2023-07-24T09:03:25;18.50;;;12.65;;
24273;SDS011;12392;42.678;23.380;2023-07-24T09:05:51;23.45;;;12.65;;
24273;SDS011;12392;42.678;23.380;2023-07-24T09:08:17;19.15;;;12.50;;
24273;SDS011;12392;42.678;23.380;2023-07-24T09:10:53;23.92;;;12.00;;
24273;SDS011;12392;42.678;23.380;2023-07-24T09:13:18;20.88;;;12.95;;
24273;SDS011;12392;42.678;23.380;2023-07-24T09:15:44;23.17;;;11.73;;
24273;SDS011;12392;42.678;23.380;2023-07-24T09:18:10;19.65;;;11.75;;
24273;SDS011;12392;42.678;23.380;2023-07-24T09:20:40;24.05;;;12.02;;
24273;SDS011;12392;42.678;23.380;2023-07-24T09:23:07;17.95;;;12.07;;
24273;SDS011;12392;42.678;23.380;2023-07-24T09:25:37;24.95;;;11.60;;
24273;SDS011;12392;42.678;23.380;2023-07-24T09:28:10;19.70;;;12.65;;
24273;SDS011;12392;42.678;23.380;2023-07-24T09:30:40;21.48;;;12.00;;
24273;SDS011;12392;42.678;23.380;2023-07-24T09:33:07;27.42;;;12.80;;
24273;SDS011;12392;42.678;23.380;2023-07-24T09:35:33;28.83;;;12.07;;
24273;SDS011;12392;42.678;23.380;2023-07-24T09:38:09;19.80;;;12.68;;
24273;SDS011;12392;42.678;23.380;2023-07-24T09:40:43;25.58;;;12.65;;
24273;SDS011;12392;42.678;23.380;2023-07-24T09:43:16;26.02;;;13.02;;
24273;SDS011;12392;42.678;23.380;2023-07-24T09:45:49;22.77;;;12.27;;
24273;SDS011;12392;42.678;23.380;2023-07-24T09:48:17;22.38;;;13.35;;
24273;SDS011;12392;42.678;23.380;2023-07-24T09:50:44;21.85;;;12.05;;
24273;SDS011;12392;42.678;23.380;2023-07-24T09:55:55;24.73;;;13.25;;
24273;SDS011;12392;42.678;23.380;2023-07-24T09:58:23;19.45;;;12.45;;
24273;SDS011;12392;42.678;23.380;2023-07-24T10:00:49;24.98;;;12.70;;
24273;SDS011;12392;42.678;23.380;2023-07-24T10:03:16;23.05;;;11.98;;
24273;SDS011;12392;42.678;23.380;2023-07-24T10:05:43;19.25;;;12.30;;
24273;SDS011;12392;42.678;23.380;2023-07-24T10:08:10;22.20;;;12.88;;
24273;SDS011;12392;42.678;23.380;2023-07-24T10:10:36;19.88;;;13.10;;
24273;SDS011;12392;42.678;23.380;2023-07-24T10:13:03;22.00;;;12.05;;
24273;SDS011;12392;42.678;23.380;2023-07-24T10:15:29;26.60;;;13.00;;
24273;SDS011;12392;42.678;23.380;2023-07-24T10:18:07;22.33;;;12.68;;
24273;SDS011;12392;42.678;23.380;2023-07-24T10:20:34;19.35;;;12.80;;
24273;SDS011;12392;42.678;23.380;2023-07-24T10:23:07;20.52;;;13.98;;
24273;SDS011;12392;42.678;23.380;2023-07-24T10:25:35;25.70;;;12.90;;
24273;SDS011;12392;42.678;23.380;2023-07-24T10:28:06;23.33;;;12.52;;
24273;SDS011;12392;42.678;23.380;2023-07-24T10:30:36;23.10;;;13.30;;
24273;SDS011;12392;42.678;23.380;2023-07-24T10:33:18;26.33;;;13.13;;
24273;SDS011;12392;42.678;23.380;2023-07-24T10:35:46;27.42;;;13.90;;
24273;SDS011;12392;42.678;23.380;2023-07-24T10:38:18;28.48;;;17.83;;
24273;SDS011;12392;42.678;23.380;2023-07-24T10:40:44;25.58;;;12.85;;
24273;SDS011;12392;42.678;23.380;2023-07-24T10:43:17;27.20;;;12.50;;
24273;SDS011;12392;42.678;23.380;2023-07-24T10:45:52;20.92;;;11.80;;
24273;SDS011;12392;42.678;23.380;2023-07-24T10:48:18;29.35;;;12.43;;
24273;SDS011;12392;42.678;23.380;2023-07-24T10:50:49;24.48;;;12.65;;
24273;SDS011;12392;42.678;23.380;2023-07-24T10:53:16;24.63;;;12.65;;
24273;SDS011;12392;42.678;23.380;2023-07-24T10:55:43;23.73;;;11.63;;
24273;SDS011;12392;42.678;23.380;2023-07-24T10:58:10;27.92;;;12.82;;
24273;SDS011;12392;42.678;23.380;2023-07-24T11:00:38;23.83;;;12.65;;
24273;SDS011;12392;42.678;23.380;2023-07-24T11:03:05;26.55;;;12.75;;
24273;SDS011;12392;42.678;23.380;2023-07-24T11:05:42;27.63;;;11.70;;
24273;SDS011;12392;42.678;23.380;2023-07-24T11:08:11;23.27;;;12.10;;
24273;SDS011;12392;42.678;23.380;2023-07-24T11:10:48;27.58;;;12.30;;
24273;SDS011;12392;42.678;23.380;2023-07-24T11:13:21;20.58;;;10.85;;
24273;SDS011;12392;42.678;23.380;2023-07-24T11:15:51;26.05;;;12.40;;
24273;SDS011;12392;42.678;23.380;2023-07-24T11:18:18;27.65;;;10.95;;
24273;SDS011;12392;42.678;23.380;2023-07-24T11:20:51;22.55;;;11.10;;
24273;SDS011;12392;42.678;23.380;2023-07-24T11:23:18;23.23;;;11.23;;
24273;SDS011;12392;42.678;23.380;2023-07-24T11:25:44;22.90;;;11.15;;
24273;SDS011;12392;42.678;23.380;2023-07-24T11:28:11;29.23;;;11.68;;
24273;SDS011;12392;42.678;23.380;2023-07-24T11:30:37;18.13;;;9.95;;
24273;SDS011;12392;42.678;23.380;2023-07-24T11:33:04;18.45;;;8.68;;
24273;SDS011;12392;42.678;23.380;2023-07-24T11:35:32;18.17;;;11.20;;
24273;SDS011;12392;42.678;23.380;2023-07-24T11:37:58;24.63;;;10.65;;
24273;SDS011;12392;42.678;23.380;2023-07-24T11:40:40;24.80;;;11.40;;
24273;SDS011;12392;42.678;23.380;2023-07-24T11:43:17;19.20;;;10.70;;
24273;SDS011;12392;42.678;23.380;2023-07-24T11:45:44;21.50;;;10.77;;
24273;SDS011;12392;42.678;23.380;2023-07-24T11:48:10;21.92;;;11.13;;
24273;SDS011;12392;42.678;23.380;2023-07-24T11:50:53;20.60;;;11.02;;
24273;SDS011;12392;42.678;23.380;2023-07-24T11:53:23;25.85;;;9.63;;
24273;SDS011;12392;42.678;23.380;2023-07-24T11:56:00;16.95;;;9.40;;
24273;SDS011;12392;42.678;23.380;2023-07-24T11:58:29;21.58;;;10.07;;
24273;SDS011;12392;42.678;23.380;2023-07-24T12:00:55;19.25;;;10.27;;
24273;SDS011;12392;42.678;23.380;2023-07-24T12:03:25;20.88;;;9.90;;
24273;SDS011;12392;42.678;23.380;2023-07-24T12:05:51;19.48;;;10.30;;
24273;SDS011;12392;42.678;23.380;2023-07-24T12:08:19;16.10;;;9.77;;
24273;SDS011;12392;42.678;23.380;2023-07-24T12:10:46;14.93;;;10.20;;
24273;SDS011;12392;42.678;23.380;2023-07-24T12:13:11;18.50;;;10.23;;
24273;SDS011;12392;42.678;23.380;2023-07-24T12:15:37;17.30;;;9.57;;
24273;SDS011;12392;42.678;23.380;2023-07-24T12:18:04;21.08;;;10.52;;
24273;SDS011;12392;42.678;23.380;2023-07-24T12:20:30;15.85;;;9.60;;
24273;SDS011;12392;42.678;23.380;2023-07-24T12:22:56;17.70;;;10.00;;
24273;SDS011;12392;42.678;23.380;2023-07-24T12:25:22;19.77;;;10.43;;
24273;SDS011;12392;42.678;23.380;2023-07-24T12:27:48;16.52;;;10.60;;
24273;SDS011;12392;42.678;23.380;2023-07-24T12:30:14;29.08;;;10.25;;
24273;SDS011;12392;42.678;23.380;2023-07-24T12:32:39;14.50;;;9.88;;
24273;SDS011;12392;42.678;23.380;2023-07-24T12:35:06;20.75;;;10.18;;
24273;SDS011;12392;42.678;23.380;2023-07-24T12:37:33;17.30;;;10.07;;
24273;SDS011;12392;42.678;23.380;2023-07-24T12:39:58;17.15;;;10.45;;
24273;SDS011;12392;42.678;23.380;2023-07-24T12:42:24;16.45;;;9.30;;
24273;SDS011;12392;42.678;23.380;2023-07-24T12:44:50;17.77;;;10.13;;
24273;SDS011;12392;42.678;23.380;2023-07-24T12:47:16;15.75;;;9.88;;
24273;SDS011;12392;42.678;23.380;2023-07-24T12:49:42;20.25;;;9.82;;
24273;SDS011;12392;42.678;23.380;2023-07-24T12:52:07;21.35;;;10.38;;
24273;SDS011;12392;42.678;23.380;2023-07-24T12:54:33;14.13;;;10.10;;
24273;SDS011;12392;42.678;23.380;2023-07-24T12:57:00;19.60;;;9.93;;
24273;SDS011;12392;42.678;23.380;2023-07-24T12:59:27;17.00;;;10.18;;
24273;SDS011;12392;42.678;23.380;2023-07-24T13:01:53;17.00;;;9.55;;
24273;SDS011;12392;42.678;23.380;2023-07-24T13:04:19;24.05;;;10.43;;
24273;SDS011;12392;42.678;23.380;2023-07-24T13:06:45;16.40;;;10.05;;
24273;SDS011;12392;42.678;23.380;2023-07-24T13:09:10;17.60;;;10.18;;
24273;SDS011;12392;42.678;23.380;2023-07-24T13:11:36;12.55;;;9.38;;
24273;SDS011;12392;42.678;23.380;2023-07-24T13:14:02;16.88;;;9.68;;
24273;SDS011;12392;42.678;23.380;2023-07-24T13:16:27;17.65;;;9.93;;
24273;SDS011;12392;42.678;23.380;2023-07-24T13:18:53;14.82;;;10.07;;
24273;SDS011;12392;42.678;23.380;2023-07-24T13:21:19;14.63;;;8.75;;
24273;SDS011;12392;42.678;23.380;2023-07-24T13:23:44;18.08;;;9.65;;
24273;SDS011;12392;42.678;23.380;2023-07-24T13:26:11;14.38;;;9.77;;
24273;SDS011;12392;42.678;23.380;2023-07-24T13:28:38;18.45;;;10.15;;
24273;SDS011;12392;42.678;23.380;2023-07-24T13:31:37;14.50;;;10.10;;
24273;SDS011;12392;42.678;23.380;2023-07-24T13:33:56;17.48;;;9.88;;
24273;SDS011;12392;42.678;23.380;2023-07-24T13:36:21;16.73;;;10.30;;
24273;SDS011;12392;42.678;23.380;2023-07-24T13:38:47;19.17;;;9.88;;
24273;SDS011;12392;42.678;23.380;2023-07-24T13:41:13;20.40;;;10.80;;
24273;SDS011;12392;42.678;23.380;2023-07-24T13:43:39;17.13;;;10.90;;
24273;SDS011;12392;42.678;23.380;2023-07-24T13:46:04;16.23;;;9.63;;
24273;SDS011;12392;42.678;23.380;2023-07-24T13:48:32;21.92;;;10.23;;
24273;SDS011;12392;42.678;23.380;2023-07-24T13:50:58;17.45;;;9.82;;
24273;SDS011;12392;42.678;23.380;2023-07-24T13:53:23;15.13;;;9.63;;
24273;SDS011;12392;42.678;23.380;2023-07-24T13:55:49;18.58;;;10.18;;
24273;SDS011;12392;42.678;23.380;2023-07-24T13:58:15;22.25;;;10.23;;
24273;SDS011;12392;42.678;23.380;2023-07-24T14:00:41;21.80;;;13.70;;
24273;SDS011;12392;42.678;23.380;2023-07-24T14:03:07;15.85;;;10.05;;
24273;SDS011;12392;42.678;23.380;2023-07-24T14:05:33;15.07;;;11.13;;
24273;SDS011;12392;42.678;23.380;2023-07-24T14:08:01;15.98;;;10.68;;
24273;SDS011;12392;42.678;23.380;2023-07-24T14:10:27;20.08;;;10.93;;
24273;SDS011;12392;42.678;23.380;2023-07-24T14:12:53;20.30;;;11.05;;
24273;SDS011;12392;42.678;23.380;2023-07-24T14:15:18;15.73;;;10.23;;
24273;SDS011;12392;42.678;23.380;2023-07-24T14:17:44;18.58;;;11.05;;